Atlantic - Newfoundland: Past 24 Hour Conditions

 

St. Lawrence

03:30 PM NDT 21 October 2014
This table is a summary of hourly weather conditions for the past 24 hours.
Date / Time
(NDT)
Wind(knots) Conditions Visibility(km) Pressure(kPa) Air tempC) Relative humidity(%) Dew pointC)
21 October 2014
15:30 W 13 gust 21 N/A N/A 101.9 11 64 4
14:30 W 16 gust 21 N/A N/A 101.9 11 63 5
13:30 W 18 gust 23 N/A N/A 101.8 10 67 4
12:30 WSW 16 gust 24 N/A N/A 101.8 10 71 5
11:30 WSW 17 gust 23 N/A N/A 101.7 10 69 4
10:30 W 16 gust 29 N/A N/A 101.7 10 70 5
9:30 WSW 15 gust 20 N/A N/A 101.6 9 71 4
8:30 WSW 16 gust 22 N/A N/A 101.5 9 74 4
7:30 WSW 19 gust 26 N/A N/A 101.4 9 74 4
6:30 WSW 19 gust 26 N/A N/A 101.3 8 76 4
5:30 WSW 20 N/A N/A 101.2 8 82 5
4:30 WSW 19 N/A N/A 101.1 7 85 5
3:30 WSW 17 gust 22 N/A N/A 101.0 7 84 5
2:30 WSW 15 gust 27 N/A N/A 101.0 8 80 5
1:30 WSW 24 gust 32 N/A N/A 100.9 8 77 4
0:30 WSW 25 gust 35 N/A N/A 100.8 8 78 4
20 October 2014
23:30 WSW 21 gust 29 N/A N/A 100.8 7 84 5
22:30 WSW 27 gust 35 N/A N/A 100.8 8 85 5
21:30 WSW 21 gust 27 N/A N/A 100.7 8 75 4
20:30 WSW 22 gust 30 N/A N/A 100.6 8 87 6
19:30 WSW 21 gust 31 N/A N/A 100.5 9 88 7
18:30 WSW 20 gust 26 N/A N/A 100.4 9 83 7
17:30 WSW 23 gust 29 N/A N/A 100.3 10 77 6
16:30 WSW 25 gust 36 N/A N/A 100.2 10 86 7
15:30 WSW 27 gust 33 N/A N/A 100.1 11 89 9
 
Map of Atlantic - Newfoundland marine weather areas Southwestern Grand Banks - 44138 Banquereau - 44139 Tail of the Bank - 44140 Nickerson Bank - 44251 Northeast Burgeo Bank - 44255 Blanc-Sablon Airport Cap Whittle Chevery Natashquan Airport Heath Point Miscou Island Grand Étang Ingonish Beach North Mountain St.Paul Island J.A. Douglas McCurdy Sydney Airport Charlottetown Airport East Point North Cape Argentia Bonavista Burgeo Cape Race Corner Brook Daniel's Harbour Englee Ferolle Point La Scie Port aux Basques Rocky Harbour Sagona Island St. Anthony Airport St. John's Int'l Airport St. Lawrence Stephenville Airport Twillingate Winterland Wreckhouse Cartwright Airport Mary's Harbour Grates Cove Pool's Island Marticot Island Long Pond Îles de la Madeleine Airport
Legend: buoyBuoy land stationLand Station